Time;durP1;ratioP1;P1;durP2;ratioP2;P2;SDS_P1;SDS_P2;PMS_P1;PMS_P2;Temp;Humidity;BMP_temperature;BMP_pressure;BME280_temperature;BME280_humidity;BME280_pressure;Samples;Min_cycle;Max_cycle;Signal;HPM_P1;HPM_P2
2023/12/24 00:01:51;;;;;;;6.13;3.57;;;9.90;99.90;;;;;;5019946;28;20227;-75
2023/12/24 00:04:19;;;;;;;8.13;3.70;;;9.90;99.90;;;;;;5013094;28;20198;-76
2023/12/24 00:06:46;;;;;;;5.93;3.20;;;9.90;99.90;;;;;;5014155;28;20202;-76
2023/12/24 00:09:13;;;;;;;7.33;3.27;;;9.80;99.90;;;;;;5006754;28;20229;-75
2023/12/24 00:11:42;;;;;;;5.13;3.30;;;9.80;99.90;;;;;;5013804;28;20665;-75
2023/12/24 00:14:10;;;;;;;3.43;2.73;;;9.80;99.90;;;;;;5013235;28;20195;-75
2023/12/24 00:16:41;;;;;;;6.83;3.00;;;9.80;99.90;;;;;;5013660;28;20664;-76
2023/12/24 00:19:09;;;;;;;5.63;3.03;;;9.80;99.90;;;;;;5013996;28;20199;-76
2023/12/24 00:21:36;;;;;;;4.97;2.63;;;9.80;99.90;;;;;;5014148;28;20218;-76
2023/12/24 00:24:03;;;;;;;4.90;2.80;;;9.80;99.90;;;;;;5013905;28;20199;-76
2023/12/24 00:26:31;;;;;;;7.33;3.37;;;9.80;99.90;;;;;;5014245;28;20203;-76
2023/12/24 00:29:00;;;;;;;6.37;3.10;;;9.90;99.90;;;;;;5031257;28;20202;-75
2023/12/24 00:31:27;;;;;;;8.80;2.83;;;9.90;99.90;;;;;;5008143;28;20218;-76
2023/12/24 00:33:55;;;;;;;5.40;2.93;;;9.90;99.90;;;;;;5013746;28;20210;-76
2023/12/24 00:36:22;;;;;;;7.60;3.10;;;9.90;99.90;;;;;;5014581;28;20195;-76
2023/12/24 00:38:49;;;;;;;7.43;3.00;;;9.90;99.90;;;;;;5021250;28;20217;-76
2023/12/24 00:41:17;;;;;;;6.90;3.03;;;10.00;99.90;;;;;;5013405;28;20230;-76
2023/12/24 00:43:45;;;;;;;5.07;2.10;;;10.00;99.90;;;;;;5010222;28;20230;-76
2023/12/24 00:46:16;;;;;;;4.57;2.80;;;10.00;99.90;;;;;;5013951;28;20280;-76
2023/12/24 00:48:44;;;;;;;6.33;2.83;;;10.10;99.90;;;;;;5013540;28;20218;-77
2023/12/24 00:51:11;;;;;;;4.60;3.00;;;10.10;99.90;;;;;;5031811;28;20211;-77
2023/12/24 00:53:38;;;;;;;3.73;2.70;;;10.10;99.90;;;;;;5022623;28;20191;-76
2023/12/24 00:56:06;;;;;;;4.57;2.60;;;10.10;99.90;;;;;;5004717;28;20207;-76
2023/12/24 00:58:34;;;;;;;3.90;2.47;;;10.20;99.90;;;;;;4998548;28;20207;-76
2023/12/24 01:01:01;;;;;;;4.37;2.40;;;10.20;99.90;;;;;;5010120;28;20215;-76
2023/12/24 01:03:30;;;;;;;4.90;2.50;;;10.20;99.90;;;;;;5011276;28;20207;-76
2023/12/24 01:05:57;;;;;;;5.33;2.07;;;10.20;99.90;;;;;;5003172;28;20203;-76
2023/12/24 01:08:24;;;;;;;5.17;2.63;;;10.20;99.90;;;;;;4998308;28;20203;-76
2023/12/24 01:10:52;;;;;;;4.00;2.40;;;10.20;99.90;;;;;;5031276;28;20223;-77
2023/12/24 01:13:19;;;;;;;6.87;2.63;;;10.20;99.90;;;;;;5015342;28;20207;-76
2023/12/24 01:15:47;;;;;;;4.63;2.47;;;10.20;99.90;;;;;;5015719;28;20211;-76
2023/12/24 01:18:15;;;;;;;2.50;1.90;;;10.30;99.90;;;;;;5016631;28;20195;-76
2023/12/24 01:20:44;;;;;;;5.70;2.43;;;10.20;99.90;;;;;;5017099;28;20223;-76
2023/12/24 01:23:12;;;;;;;4.13;2.13;;;10.30;99.90;;;;;;5016729;28;20219;-76
2023/12/24 01:25:39;;;;;;;5.13;2.30;;;10.30;99.90;;;;;;5014618;28;20204;-76
2023/12/24 01:28:07;;;;;;;6.00;2.47;;;10.30;99.90;;;;;;5041826;28;20201;-76
2023/12/24 01:30:34;;;;;;;6.90;2.00;;;10.30;99.90;;;;;;5016541;28;20565;-77
2023/12/24 01:33:02;;;;;;;4.40;2.33;;;10.30;99.90;;;;;;5016237;28;20291;-76
2023/12/24 01:35:29;;;;;;;4.83;2.33;;;10.30;99.90;;;;;;5020395;28;20206;-76
2023/12/24 01:37:58;;;;;;;3.83;2.00;;;10.30;99.90;;;;;;5016665;28;20199;-76
2023/12/24 01:40:25;;;;;;;7.20;2.20;;;10.30;99.90;;;;;;5013028;28;20269;-76
2023/12/24 01:42:53;;;;;;;5.93;2.70;;;10.30;99.90;;;;;;5016966;28;20235;-77
2023/12/24 01:45:20;;;;;;;6.40;2.37;;;10.30;99.90;;;;;;4997231;28;20195;-77
2023/12/24 01:47:50;;;;;;;4.33;2.37;;;10.30;99.90;;;;;;5016743;28;20206;-76
2023/12/24 01:50:17;;;;;;;3.87;2.07;;;10.40;99.90;;;;;;5016304;28;20227;-76
2023/12/24 01:52:45;;;;;;;5.77;2.13;;;10.40;99.90;;;;;;5015937;28;20199;-76
2023/12/24 01:55:14;;;;;;;6.20;2.83;;;10.40;99.90;;;;;;5015977;28;20203;-77
2023/12/24 01:57:41;;;;;;;4.23;1.80;;;10.40;99.90;;;;;;5014048;28;20198;-76
2023/12/24 02:00:10;;;;;;;3.40;1.83;;;10.40;99.90;;;;;;5033486;28;20219;-76
2023/12/24 02:02:39;;;;;;;4.50;2.00;;;10.40;99.90;;;;;;5009260;28;20227;-76
2023/12/24 02:05:07;;;;;;;7.30;2.10;;;10.40;99.90;;;;;;5006422;28;20215;-75
2023/12/24 02:07:35;;;;;;;7.43;3.80;;;10.40;99.90;;;;;;5009152;28;20207;-75
2023/12/24 02:10:03;;;;;;;5.13;3.47;;;10.40;99.90;;;;;;5012360;28;20223;-76
2023/12/24 02:12:35;;;;;;;6.00;4.07;;;10.30;99.90;;;;;;5010732;28;20202;-75
2023/12/24 02:15:04;;;;;;;4.30;3.27;;;10.30;99.90;;;;;;5007584;28;20204;-76
2023/12/24 02:17:33;;;;;;;4.00;3.70;;;10.30;99.90;;;;;;5009898;28;20214;-76
2023/12/24 02:20:09;;;;;;;6.10;3.50;;;10.30;99.90;;;;;;5008814;28;20223;-76
2023/12/24 02:22:38;;;;;;;3.90;3.50;;;10.20;99.90;;;;;;5006349;28;20199;-77
2023/12/24 02:25:07;;;;;;;5.00;3.20;;;10.30;99.90;;;;;;5011558;28;20199;-76
2023/12/24 02:27:42;;;;;;;8.80;2.80;;;10.20;99.90;;;;;;5017250;28;20202;-76
2023/12/24 02:30:21;;;;;;;5.10;2.80;;;10.20;99.90;;;;;;5012321;28;20237;-76
2023/12/24 02:32:54;;;;;;;3.60;2.40;;;10.20;99.90;;;;;;5015305;28;20207;-76
2023/12/24 02:35:24;;;;;;;3.73;2.50;;;10.20;99.90;;;;;;5014859;28;20199;-76
2023/12/24 02:37:53;;;;;;;2.67;2.20;;;10.20;99.90;;;;;;5009669;28;20203;-76
2023/12/24 02:40:21;;;;;;;2.97;1.97;;;10.20;99.90;;;;;;5013436;28;20227;-76
2023/12/24 02:42:48;;;;;;;3.23;2.03;;;10.20;99.90;;;;;;5008476;28;20569;-76
2023/12/24 02:45:15;;;;;;;2.60;1.30;;;10.20;99.90;;;;;;5017027;28;20210;-76
2023/12/24 02:47:43;;;;;;;6.27;1.40;;;10.30;99.90;;;;;;5033669;28;20199;-76
2023/12/24 02:50:11;;;;;;;3.53;1.73;;;10.30;99.90;;;;;;5011688;28;20566;-76
2023/12/24 02:52:38;;;;;;;4.63;1.80;;;10.30;99.90;;;;;;5001956;28;20203;-76
2023/12/24 02:55:08;;;;;;;5.70;1.63;;;10.30;99.90;;;;;;5015245;28;20221;-77
2023/12/24 02:57:35;;;;;;;5.77;1.47;;;10.20;99.90;;;;;;5033382;28;20645;-76
2023/12/24 03:00:04;;;;;;;6.07;1.67;;;10.20;99.90;;;;;;5012572;28;20581;-76
2023/12/24 03:02:32;;;;;;;3.37;1.40;;;10.20;99.90;;;;;;5007250;28;20210;-76
2023/12/24 03:05:00;;;;;;;3.67;1.50;;;10.10;99.90;;;;;;5014829;28;20221;-76
2023/12/24 03:07:28;;;;;;;3.37;1.27;;;10.00;99.90;;;;;;5015533;28;20203;-76
2023/12/24 03:09:55;;;;;;;1.87;1.10;;;10.00;99.90;;;;;;5014479;28;20676;-76
2023/12/24 03:12:24;;;;;;;2.90;1.10;;;9.90;99.90;;;;;;5014811;28;20199;-76
2023/12/24 03:14:53;;;;;;;3.43;1.20;;;9.80;99.90;;;;;;5014430;28;20202;-76
2023/12/24 03:17:22;;;;;;;3.43;1.53;;;9.80;99.90;;;;;;5015034;28;20213;-77
2023/12/24 03:19:50;;;;;;;2.17;1.20;;;9.80;99.90;;;;;;5032298;28;20194;-76
2023/12/24 03:22:17;;;;;;;3.10;1.40;;;9.70;99.90;;;;;;5011806;28;20200;-76
2023/12/24 03:24:45;;;;;;;2.87;1.00;;;9.70;99.90;;;;;;5012233;28;20215;-76
2023/12/24 03:27:12;;;;;;;2.53;1.33;;;9.70;99.90;;;;;;5012625;28;20198;-76
2023/12/24 03:29:41;;;;;;;1.63;1.20;;;9.60;99.90;;;;;;5014189;28;20199;-76
2023/12/24 03:32:09;;;;;;;3.10;1.50;;;9.60;99.90;;;;;;5005720;28;20207;-77
2023/12/24 03:34:36;;;;;;;2.23;1.30;;;9.70;99.90;;;;;;5013583;28;20195;-76
2023/12/24 03:37:04;;;;;;;5.57;1.83;;;9.70;99.90;;;;;;5005739;28;20668;-76
2023/12/24 03:39:31;;;;;;;2.13;1.50;;;9.70;99.90;;;;;;5014262;28;20203;-76
2023/12/24 03:41:59;;;;;;;2.10;1.43;;;9.70;99.90;;;;;;5012966;28;20231;-76
2023/12/24 03:44:26;;;;;;;1.70;1.20;;;9.70;99.90;;;;;;5013318;28;20203;-76
2023/12/24 03:46:55;;;;;;;1.43;1.20;;;9.70;99.90;;;;;;5000767;28;20199;-76
2023/12/24 03:49:22;;;;;;;2.00;1.17;;;9.70;99.90;;;;;;5004859;28;20212;-76
2023/12/24 03:51:50;;;;;;;2.70;1.40;;;9.80;99.90;;;;;;5011215;28;20223;-76
2023/12/24 03:54:21;;;;;;;2.00;1.33;;;9.80;99.90;;;;;;5011954;28;20191;-76
2023/12/24 03:56:49;;;;;;;1.60;1.10;;;9.90;99.90;;;;;;5012504;28;20376;-76
2023/12/24 03:59:17;;;;;;;1.60;1.23;;;9.90;99.90;;;;;;5003748;28;20206;-76
2023/12/24 04:01:44;;;;;;;1.20;1.10;;;9.90;99.90;;;;;;5010748;28;20218;-76
2023/12/24 04:04:13;;;;;;;1.70;1.20;;;9.90;99.90;;;;;;5010912;28;20218;-76
2023/12/24 04:06:40;;;;;;;2.20;1.23;;;10.00;99.90;;;;;;5014201;28;20202;-76
2023/12/24 04:09:09;;;;;;;2.90;1.20;;;10.00;99.90;;;;;;5010613;28;20203;-76
2023/12/24 04:11:36;;;;;;;2.23;1.00;;;10.00;99.90;;;;;;5005366;28;20708;-76
2023/12/24 04:14:04;;;;;;;1.07;0.97;;;10.00;99.90;;;;;;5012342;28;20214;-76
2023/12/24 04:16:31;;;;;;;1.20;1.10;;;10.10;99.90;;;;;;5013393;28;20772;-76
2023/12/24 04:18:59;;;;;;;2.20;1.60;;;10.10;99.90;;;;;;5008193;28;20209;-76
2023/12/24 04:21:30;;;;;;;2.00;1.30;;;10.10;99.90;;;;;;5013097;28;20218;-76
2023/12/24 04:23:58;;;;;;;1.83;1.73;;;10.20;99.90;;;;;;5010978;28;20556;-76
2023/12/24 04:26:25;;;;;;;1.73;0.90;;;10.20;99.90;;;;;;5031478;28;20198;-76
2023/12/24 04:28:53;;;;;;;1.00;0.90;;;10.20;99.90;;;;;;5012605;28;20199;-76
2023/12/24 04:31:20;;;;;;;1.60;1.00;;;10.30;99.90;;;;;;5014134;28;20800;-76
2023/12/24 04:33:48;;;;;;;1.63;0.97;;;10.30;99.90;;;;;;5009947;28;20195;-76
2023/12/24 04:36:18;;;;;;;1.60;0.90;;;10.30;99.90;;;;;;5011237;28;20206;-76
2023/12/24 04:38:47;;;;;;;0.87;0.73;;;10.30;99.90;;;;;;5012344;28;20188;-76
2023/12/24 04:41:16;;;;;;;0.57;0.57;;;10.30;99.90;;;;;;4996521;28;20223;-76
2023/12/24 04:43:44;;;;;;;0.97;0.80;;;10.30;99.90;;;;;;5009122;28;20199;-76
2023/12/24 04:46:12;;;;;;;1.03;0.57;;;10.40;99.90;;;;;;5031441;28;20199;-76
2023/12/24 04:48:39;;;;;;;0.40;0.40;;;10.40;99.90;;;;;;5017912;28;20203;-76
2023/12/24 04:51:07;;;;;;;1.47;0.70;;;10.40;99.90;;;;;;5018181;28;20226;-76
2023/12/24 04:53:34;;;;;;;0.63;0.63;;;10.40;99.90;;;;;;5016669;28;20207;-76
2023/12/24 04:56:04;;;;;;;0.50;0.50;;;10.40;99.90;;;;;;5017437;28;20202;-76
2023/12/24 04:58:31;;;;;;;0.50;0.50;;;10.40;99.90;;;;;;5017251;28;20207;-76
2023/12/24 05:00:59;;;;;;;1.83;0.70;;;10.40;99.90;;;;;;5017464;28;20219;-76
2023/12/24 05:03:26;;;;;;;0.47;0.47;;;10.50;99.90;;;;;;5016404;28;20191;-76
2023/12/24 05:05:53;;;;;;;0.43;0.43;;;10.50;99.90;;;;;;5016952;28;20210;-76
2023/12/24 05:08:21;;;;;;;0.70;0.50;;;10.50;99.90;;;;;;5035503;28;20557;-76
2023/12/24 05:10:49;;;;;;;0.70;0.40;;;10.50;99.90;;;;;;5015481;28;20220;-76
2023/12/24 05:13:18;;;;;;;0.50;0.50;;;10.50;99.90;;;;;;5016519;28;20214;-76
2023/12/24 05:15:46;;;;;;;0.50;0.50;;;10.50;99.90;;;;;;5017417;28;20190;-76
2023/12/24 05:18:14;;;;;;;0.57;0.50;;;10.50;99.90;;;;;;5017159;28;20199;-76
2023/12/24 05:20:41;;;;;;;0.47;0.40;;;10.50;99.90;;;;;;5013653;28;20226;-76
2023/12/24 05:23:08;;;;;;;0.50;0.50;;;10.50;99.90;;;;;;5006527;28;20206;-76
2023/12/24 05:25:36;;;;;;;0.50;0.50;;;10.50;99.90;;;;;;5016747;28;20211;-76
2023/12/24 05:28:04;;;;;;;0.33;0.33;;;10.50;99.90;;;;;;5017328;28;20201;-76
2023/12/24 05:30:32;;;;;;;0.70;0.50;;;10.50;99.90;;;;;;5013798;28;20224;-76
2023/12/24 05:33:00;;;;;;;1.00;0.77;;;10.50;99.90;;;;;;5006856;28;20202;-76
2023/12/24 05:35:27;;;;;;;0.37;0.37;;;10.50;99.90;;;;;;5016595;28;20206;-76
2023/12/24 05:37:55;;;;;;;0.47;0.47;;;10.50;99.90;;;;;;5017487;28;20222;-76
2023/12/24 05:42:56;;;;;;;0.30;0.20;;;10.50;99.90;;;;;;4987543;28;20220;-78
2023/12/24 05:45:24;;;;;;;0.50;0.30;;;10.50;99.90;;;;;;4997892;28;20212;-77
2023/12/24 05:47:53;;;;;;;0.67;0.40;;;10.60;99.90;;;;;;4981225;28;20208;-77
2023/12/24 05:50:20;;;;;;;0.30;0.30;;;10.60;99.90;;;;;;4980581;28;20205;-78
2023/12/24 05:52:48;;;;;;;0.40;0.40;;;10.60;99.90;;;;;;4976818;28;20225;-78
2023/12/24 05:55:15;;;;;;;0.30;0.30;;;10.60;99.90;;;;;;4961236;28;20205;-77
2023/12/24 05:57:42;;;;;;;1.13;0.30;;;10.60;99.90;;;;;;4960945;28;20205;-78
2023/12/24 06:00:11;;;;;;;0.50;0.30;;;10.60;99.90;;;;;;4961074;28;20205;-78
2023/12/24 06:02:44;;;;;;;0.40;0.40;;;10.60;99.90;;;;;;4973645;28;20224;-78
2023/12/24 06:05:13;;;;;;;1.07;0.43;;;10.60;99.90;;;;;;4959793;28;20225;-78
2023/12/24 06:07:40;;;;;;;0.50;0.50;;;10.60;99.90;;;;;;4958043;29;20249;-78
2023/12/24 06:10:09;;;;;;;0.60;0.53;;;10.60;99.90;;;;;;4976612;28;20204;-78
2023/12/24 06:12:36;;;;;;;0.40;0.40;;;10.60;99.90;;;;;;4975515;28;20221;-77
2023/12/24 06:15:05;;;;;;;1.73;0.50;;;10.60;99.90;;;;;;4974048;28;20213;-78
2023/12/24 06:17:32;;;;;;;0.47;0.47;;;10.60;99.90;;;;;;4976673;28;20201;-77
2023/12/24 06:19:59;;;;;;;0.50;0.50;;;10.60;99.90;;;;;;4977300;28;20200;-78
2023/12/24 06:22:28;;;;;;;0.93;0.73;;;10.60;99.90;;;;;;4960298;28;20571;-78
2023/12/24 06:25:01;;;;;;;0.60;0.60;;;10.60;99.90;;;;;;4961094;28;20228;-77
2023/12/24 06:27:28;;;;;;;0.70;0.70;;;10.70;99.90;;;;;;4984583;28;20194;-78
2023/12/24 06:29:55;;;;;;;0.90;0.50;;;10.70;99.90;;;;;;4981607;28;20208;-77
2023/12/24 06:32:23;;;;;;;0.67;0.67;;;10.70;99.90;;;;;;4960928;28;20224;-78
2023/12/24 06:34:50;;;;;;;0.73;0.73;;;10.60;99.90;;;;;;4960125;28;20204;-77
2023/12/24 06:37:18;;;;;;;1.10;0.97;;;10.70;99.90;;;;;;4959299;28;20201;-78
2023/12/24 06:39:47;;;;;;;1.43;0.70;;;10.70;99.90;;;;;;4973633;28;20201;-76
2023/12/24 06:42:14;;;;;;;0.80;0.70;;;10.80;99.90;;;;;;4950845;28;20233;-76
2023/12/24 06:44:42;;;;;;;0.80;0.80;;;10.70;99.90;;;;;;4973225;28;20216;-78
2023/12/24 06:47:10;;;;;;;0.80;0.80;;;10.70;99.90;;;;;;4973378;28;20209;-77
2023/12/24 06:49:52;;;;;;;0.70;0.70;;;10.70;99.90;;;;;;4975054;28;20212;-77
2023/12/24 06:52:20;;;;;;;0.90;0.80;;;10.70;99.90;;;;;;4958567;28;20616;-78
2023/12/24 06:54:49;;;;;;;1.20;0.80;;;10.70;99.90;;;;;;4976808;28;20651;-77
2023/12/24 06:57:19;;;;;;;1.20;0.67;;;10.70;99.90;;;;;;4959682;28;20204;-77
2023/12/24 06:59:47;;;;;;;3.00;1.10;;;10.80;99.90;;;;;;4973409;28;20225;-77
2023/12/24 07:02:14;;;;;;;1.40;1.07;;;10.70;99.90;;;;;;4976268;28;20232;-77
2023/12/24 07:04:42;;;;;;;0.90;0.73;;;10.70;99.90;;;;;;4959454;28;20208;-78
2023/12/24 07:07:09;;;;;;;0.83;0.83;;;10.80;99.90;;;;;;4959570;28;20216;-77
2023/12/24 07:09:37;;;;;;;1.30;1.20;;;10.70;99.90;;;;;;4978839;28;20205;-77
2023/12/24 07:12:06;;;;;;;1.43;1.30;;;10.70;99.90;;;;;;4966949;28;20220;-77
2023/12/24 07:14:34;;;;;;;1.20;1.10;;;10.70;99.90;;;;;;4977000;28;20197;-78
2023/12/24 07:17:02;;;;;;;1.17;1.07;;;10.80;99.90;;;;;;4958450;28;20212;-78
2023/12/24 07:19:29;;;;;;;1.57;1.10;;;10.80;99.90;;;;;;4975109;28;20200;-77
2023/12/24 07:21:57;;;;;;;1.40;1.30;;;10.80;99.90;;;;;;4961762;28;20228;-77
2023/12/24 07:24:27;;;;;;;1.30;0.93;;;10.80;99.90;;;;;;4972090;28;20205;-77
2023/12/24 07:26:54;;;;;;;1.23;1.10;;;10.80;99.90;;;;;;4955221;28;20225;-77
2023/12/24 07:29:23;;;;;;;1.20;1.10;;;10.80;99.90;;;;;;4953712;28;20197;-77
2023/12/24 07:32:11;;;;;;;1.23;1.10;;;10.80;99.90;;;;;;4980068;28;20225;-77
2023/12/24 07:34:38;;;;;;;1.40;0.80;;;10.80;99.90;;;;;;4973276;28;20737;-77
2023/12/24 07:37:06;;;;;;;1.07;0.83;;;10.80;99.90;;;;;;4973468;28;20555;-77
2023/12/24 07:39:43;;;;;;;1.13;1.03;;;10.80;99.90;;;;;;4967729;28;20205;-77
2023/12/24 07:42:10;;;;;;;3.10;1.07;;;10.80;99.90;;;;;;4974914;28;20232;-77
2023/12/24 07:44:39;;;;;;;1.90;1.63;;;10.80;99.90;;;;;;4970993;28;20208;-77
2023/12/24 07:47:12;;;;;;;2.30;1.00;;;10.80;99.90;;;;;;4966911;28;20667;-76
2023/12/24 07:49:39;;;;;;;1.07;0.97;;;10.90;99.90;;;;;;4966019;28;20209;-77
2023/12/24 07:52:07;;;;;;;1.33;1.10;;;10.90;99.90;;;;;;4955389;28;20718;-77
2023/12/24 07:54:34;;;;;;;1.20;1.10;;;10.90;99.90;;;;;;4956409;28;20223;-76
2023/12/24 07:57:02;;;;;;;1.50;1.30;;;10.90;99.90;;;;;;4958769;28;20208;-76
2023/12/24 07:59:29;;;;;;;2.23;1.43;;;10.90;99.90;;;;;;4971497;28;20239;-76
2023/12/24 08:01:58;;;;;;;1.60;1.50;;;10.90;99.90;;;;;;4956635;28;20225;-76
2023/12/24 08:04:25;;;;;;;1.50;1.40;;;10.90;99.90;;;;;;4982800;28;20211;-76
2023/12/24 08:06:53;;;;;;;1.60;1.50;;;10.90;99.90;;;;;;4958472;28;20216;-76
2023/12/24 08:09:20;;;;;;;2.63;1.43;;;10.90;99.90;;;;;;4971802;28;20208;-76
2023/12/24 08:11:47;;;;;;;1.10;1.00;;;10.90;99.90;;;;;;4971319;28;20232;-76
2023/12/24 08:14:15;;;;;;;1.63;1.20;;;10.90;99.90;;;;;;4970878;28;20216;-75
2023/12/24 08:16:42;;;;;;;1.67;1.30;;;11.00;99.90;;;;;;4971693;28;20201;-75
2023/12/24 08:19:11;;;;;;;1.30;1.20;;;11.00;99.90;;;;;;4968565;28;20197;-75
2023/12/24 08:21:38;;;;;;;1.30;1.20;;;11.00;99.90;;;;;;4975291;28;20221;-75
2023/12/24 08:24:07;;;;;;;2.13;1.10;;;11.00;99.90;;;;;;4978373;28;20201;-76
2023/12/24 08:26:52;;;;;;;2.47;1.67;;;11.00;99.90;;;;;;4975653;28;20213;-76
2023/12/24 08:29:22;;;;;;;2.27;1.17;;;11.00;99.90;;;;;;4976542;28;20204;-75
2023/12/24 08:31:51;;;;;;;2.17;1.40;;;11.00;99.90;;;;;;4958904;28;20225;-76
2023/12/24 08:34:19;;;;;;;1.40;1.13;;;11.00;99.90;;;;;;4962257;28;20211;-76
2023/12/24 08:36:47;;;;;;;3.27;1.40;;;11.00;99.90;;;;;;4966261;28;20193;-76
2023/12/24 08:39:14;;;;;;;1.37;1.10;;;11.00;99.90;;;;;;4977374;28;20224;-77
2023/12/24 08:41:42;;;;;;;1.80;1.10;;;11.00;99.90;;;;;;4958704;28;20233;-76
2023/12/24 08:44:09;;;;;;;1.30;1.20;;;11.00;99.90;;;;;;4974871;28;20205;-77
2023/12/24 08:46:36;;;;;;;1.50;1.40;;;11.10;99.90;;;;;;4980705;28;20216;-76
2023/12/24 08:49:04;;;;;;;1.60;1.40;;;11.10;99.90;;;;;;4962965;28;20209;-77
2023/12/24 08:51:33;;;;;;;1.50;1.30;;;11.10;99.90;;;;;;4974963;28;20227;-77
2023/12/24 08:54:00;;;;;;;1.53;1.40;;;11.10;99.90;;;;;;4959809;28;20205;-77
2023/12/24 08:56:28;;;;;;;1.43;1.33;;;11.10;99.90;;;;;;4981122;28;20201;-77
2023/12/24 08:58:55;;;;;;;2.27;1.20;;;11.10;99.90;;;;;;4959845;28;20209;-76
2023/12/24 09:01:22;;;;;;;1.50;1.20;;;11.10;99.90;;;;;;4958841;28;20224;-75
2023/12/24 09:03:50;;;;;;;3.00;1.47;;;11.10;99.90;;;;;;4965550;28;20197;-76
2023/12/24 09:06:17;;;;;;;1.40;1.30;;;11.10;99.90;;;;;;4958771;28;20216;-76
2023/12/24 09:08:46;;;;;;;1.57;1.47;;;11.10;99.90;;;;;;4974962;28;20204;-77
2023/12/24 09:11:13;;;;;;;3.53;1.33;;;11.10;99.90;;;;;;4964887;28;20218;-76
2023/12/24 09:13:58;;;;;;;1.87;1.20;;;11.10;99.90;;;;;;4957667;28;20212;-77
2023/12/24 09:16:25;;;;;;;1.17;1.07;;;11.10;99.90;;;;;;4959065;28;20205;-75
2023/12/24 09:18:53;;;;;;;1.00;0.90;;;11.10;99.90;;;;;;4982724;28;20216;-76
2023/12/24 09:21:20;;;;;;;1.63;0.87;;;11.10;99.90;;;;;;4958956;28;20707;-76
2023/12/24 09:23:49;;;;;;;1.43;0.87;;;11.10;99.90;;;;;;4968833;28;20204;-75
2023/12/24 09:26:16;;;;;;;1.50;1.30;;;11.10;99.90;;;;;;4965118;28;20220;-79
2023/12/24 09:28:43;;;;;;;1.10;1.00;;;11.10;99.90;;;;;;4975956;28;20570;-77
2023/12/24 09:31:14;;;;;;;0.70;0.63;;;11.10;99.90;;;;;;4977556;28;20229;-79
2023/12/24 09:33:41;;;;;;;1.17;1.07;;;11.10;99.90;;;;;;4957973;28;20203;-75
2023/12/24 09:36:09;;;;;;;1.57;0.90;;;11.10;99.90;;;;;;4977477;28;20197;-75
2023/12/24 09:38:38;;;;;;;1.10;1.00;;;11.10;99.90;;;;;;4976021;28;20197;-76
2023/12/24 09:41:07;;;;;;;1.10;0.90;;;11.10;99.90;;;;;;4958723;28;20241;-76
2023/12/24 09:43:37;;;;;;;1.40;1.30;;;11.10;99.90;;;;;;4975131;28;20197;-76
2023/12/24 09:46:05;;;;;;;2.83;1.37;;;11.10;99.90;;;;;;4966238;28;20205;-76
2023/12/24 09:48:34;;;;;;;1.67;1.40;;;11.10;99.90;;;;;;4977128;28;20208;-75
2023/12/24 09:51:01;;;;;;;1.63;1.43;;;11.10;99.90;;;;;;4988949;28;20224;-76
2023/12/24 09:53:29;;;;;;;1.60;1.30;;;11.10;99.90;;;;;;4957437;28;20205;-75
2023/12/24 09:55:57;;;;;;;1.13;1.00;;;11.10;99.90;;;;;;4967672;28;20201;-76
2023/12/24 09:58:26;;;;;;;1.10;1.00;;;11.10;99.90;;;;;;4973377;28;20222;-75
2023/12/24 10:01:24;;;;;;;1.10;1.00;;;11.00;99.90;;;;;;4977097;28;20228;-75
2023/12/24 10:03:52;;;;;;;1.67;0.93;;;11.00;99.90;;;;;;4958964;28;20201;-75
2023/12/24 10:06:21;;;;;;;1.53;1.10;;;11.00;99.90;;;;;;4958460;28;20216;-75
2023/12/24 10:08:55;;;;;;;1.70;1.60;;;11.00;99.90;;;;;;4975087;28;20197;-75
2023/12/24 10:11:23;;;;;;;2.03;1.80;;;11.10;99.90;;;;;;4981065;28;20682;-75
2023/12/24 10:14:00;;;;;;;3.27;2.20;;;11.10;99.90;;;;;;4973995;28;20209;-75
2023/12/24 10:16:27;;;;;;;2.17;1.80;;;11.10;99.90;;;;;;4970659;28;20208;-75
2023/12/24 10:18:55;;;;;;;2.40;2.20;;;11.00;99.90;;;;;;4977357;28;20209;-75
2023/12/24 10:21:22;;;;;;;2.03;1.83;;;11.10;99.90;;;;;;4969554;28;20232;-75
2023/12/24 10:23:50;;;;;;;2.17;1.97;;;11.10;99.90;;;;;;4973667;28;20212;-75
2023/12/24 10:26:23;;;;;;;2.40;2.20;;;11.10;99.90;;;;;;4962513;28;20202;-75
2023/12/24 10:28:53;;;;;;;2.40;1.80;;;11.10;99.90;;;;;;4973591;28;20197;-75
2023/12/24 10:31:51;;;;;;;1.97;1.70;;;11.20;99.90;;;;;;4956928;28;20232;-75
2023/12/24 10:34:19;;;;;;;1.63;1.53;;;11.20;99.90;;;;;;4968544;28;20208;-76
2023/12/24 10:36:46;;;;;;;2.07;1.87;;;11.20;99.90;;;;;;4972836;28;20205;-76
2023/12/24 10:39:17;;;;;;;1.33;1.23;;;11.20;99.90;;;;;;4973369;28;20546;-76
2023/12/24 10:41:44;;;;;;;1.40;1.30;;;11.20;99.90;;;;;;4972916;28;20226;-76
2023/12/24 10:44:11;;;;;;;1.50;1.40;;;11.20;99.90;;;;;;4958638;28;20212;-76
2023/12/24 10:46:39;;;;;;;1.53;1.23;;;11.30;99.90;;;;;;4959437;28;20209;-76
2023/12/24 10:49:32;;;;;;;1.30;1.20;;;11.30;99.90;;;;;;4965571;28;20200;-76
2023/12/24 10:51:59;;;;;;;2.27;1.60;;;11.30;99.90;;;;;;4951398;28;20217;-76
2023/12/24 10:54:28;;;;;;;2.60;1.40;;;11.30;99.90;;;;;;4973290;28;20208;-76
2023/12/24 10:57:05;;;;;;;2.37;1.50;;;11.30;99.90;;;;;;4971290;28;20224;-76
2023/12/24 11:00:06;;;;;;;1.43;1.33;;;11.30;99.90;;;;;;4974852;28;20193;-76
2023/12/24 11:02:35;;;;;;;2.70;1.47;;;11.40;99.90;;;;;;4982284;28;20690;-75
2023/12/24 11:05:05;;;;;;;1.30;1.20;;;11.40;99.90;;;;;;4974897;28;20190;-76
2023/12/24 11:07:48;;;;;;;2.07;1.30;;;11.40;99.90;;;;;;4978651;28;20209;-76
2023/12/24 11:10:39;;;;;;;1.63;1.10;;;11.40;99.90;;;;;;4969428;28;20539;-77
2023/12/24 11:13:25;;;;;;;1.43;1.33;;;11.50;99.90;;;;;;4953783;28;20205;-76
2023/12/24 11:15:52;;;;;;;3.30;1.30;;;11.50;99.90;;;;;;4955982;28;20223;-76
2023/12/24 11:18:40;;;;;;;1.50;1.40;;;11.40;99.90;;;;;;4976597;28;20193;-76
2023/12/24 11:21:10;;;;;;;2.03;1.77;;;11.40;99.90;;;;;;4974289;28;20220;-75
2023/12/24 11:23:38;;;;;;;1.53;1.23;;;11.40;99.90;;;;;;4974045;28;20193;-75
2023/12/24 11:26:35;;;;;;;3.57;1.70;;;11.50;99.90;;;;;;4974265;28;20193;-75
2023/12/24 11:29:23;;;;;;;2.00;1.50;;;11.50;99.90;;;;;;4942317;28;20235;-75
2023/12/24 11:31:54;;;;;;;1.50;1.40;;;11.50;99.90;;;;;;4971893;28;20228;-75
2023/12/24 11:34:33;;;;;;;3.00;1.97;;;11.40;99.90;;;;;;4956350;28;20208;-76
2023/12/24 11:37:05;;;;;;;3.03;1.80;;;11.50;99.90;;;;;;4963083;28;20209;-76
2023/12/24 11:39:59;;;;;;;1.80;1.70;;;11.60;99.90;;;;;;4973002;28;20678;-75
2023/12/24 11:42:43;;;;;;;3.10;1.97;;;11.50;99.90;;;;;;4971736;28;20602;-75
2023/12/24 11:45:21;;;;;;;3.07;1.80;;;11.50;99.90;;;;;;4966525;28;20205;-75
2023/12/24 11:48:08;;;;;;;2.90;2.20;;;11.50;99.90;;;;;;4955929;28;20239;-75
2023/12/24 11:50:35;;;;;;;3.20;2.60;;;11.60;99.90;;;;;;4956654;28;20201;-75
2023/12/24 11:53:09;;;;;;;2.67;2.00;;;11.60;99.90;;;;;;4971928;28;20204;-75
2023/12/24 11:55:36;;;;;;;3.37;2.20;;;11.60;99.90;;;;;;4954120;28;20631;-75
2023/12/24 11:58:04;;;;;;;2.20;1.77;;;11.60;99.90;;;;;;4973675;28;20193;-75
2023/12/24 12:00:31;;;;;;;2.50;2.10;;;11.60;99.90;;;;;;4976124;28;20540;-75
2023/12/24 12:03:00;;;;;;;2.57;2.37;;;11.70;99.90;;;;;;4971576;28;20204;-74
2023/12/24 12:05:29;;;;;;;3.23;2.30;;;11.70;99.90;;;;;;4970018;28;20201;-75
2023/12/24 12:07:57;;;;;;;3.00;2.70;;;11.70;99.90;;;;;;4972616;28;20213;-75
2023/12/24 12:10:26;;;;;;;4.10;3.20;;;11.70;99.90;;;;;;4955804;28;20205;-75
2023/12/24 12:12:53;;;;;;;3.63;2.97;;;11.70;99.90;;;;;;4955915;28;20205;-75
2023/12/24 12:15:21;;;;;;;3.30;2.80;;;11.80;99.90;;;;;;4972258;28;20667;-75
2023/12/24 12:17:49;;;;;;;4.17;3.00;;;11.80;99.90;;;;;;4970304;28;20201;-75
2023/12/24 12:20:21;;;;;;;3.63;2.20;;;11.80;99.90;;;;;;4973946;28;20197;-75
2023/12/24 12:22:56;;;;;;;3.83;3.20;;;11.80;99.90;;;;;;4973229;28;20280;-75
2023/12/24 12:29:24;;;;;;;4.87;3.63;;;11.80;99.90;;;;;;4967406;28;20240;-75
2023/12/24 12:31:57;;;;;;;5.90;3.60;;;11.90;99.90;;;;;;4973331;28;20209;-75
2023/12/24 12:34:24;;;;;;;5.20;4.10;;;11.90;99.90;;;;;;4972620;28;20205;-75
2023/12/24 12:36:51;;;;;;;5.20;4.47;;;11.80;99.90;;;;;;4973042;28;20207;-75
2023/12/24 12:39:28;;;;;;;4.30;3.90;;;11.90;99.90;;;;;;4973315;28;20189;-75
2023/12/24 12:41:56;;;;;;;5.20;3.67;;;11.90;99.90;;;;;;4955842;28;20237;-75
2023/12/24 12:44:25;;;;;;;5.30;3.33;;;11.90;99.90;;;;;;4971778;28;20204;-75
2023/12/24 12:46:52;;;;;;;4.50;3.60;;;11.90;99.90;;;;;;4971973;28;20204;-75
2023/12/24 12:49:20;;;;;;;6.87;3.40;;;11.90;99.90;;;;;;4955752;28;20224;-75
2023/12/24 12:51:49;;;;;;;8.33;3.20;;;12.00;99.90;;;;;;4978374;28;20592;-75
2023/12/24 12:54:20;;;;;;;3.63;3.13;;;12.00;99.90;;;;;;4973094;28;20202;-75
2023/12/24 12:56:49;;;;;;;2.83;2.40;;;12.00;99.90;;;;;;4956077;28;20555;-76
2023/12/24 12:59:21;;;;;;;2.53;2.00;;;11.90;99.90;;;;;;4972830;28;20196;-75
2023/12/24 13:01:59;;;;;;;2.30;2.10;;;12.00;99.90;;;;;;4971938;28;20217;-74
2023/12/24 13:04:46;;;;;;;1.80;1.70;;;12.00;99.90;;;;;;4972633;28;20200;-75
2023/12/24 13:07:13;;;;;;;2.07;1.50;;;12.00;99.90;;;;;;4966626;28;20193;-75